createdAt,value
2022-11-16T00:01:00.821Z,7.41
2022-11-16T00:03:53.155Z,7.36
2022-11-16T00:06:42.947Z,7.30
2022-11-16T00:09:33.251Z,7.25
2022-11-16T00:12:26.304Z,7.20
2022-11-16T00:15:16.120Z,7.17
2022-11-16T00:18:05.990Z,7.14
2022-11-16T00:20:55.738Z,7.13
2022-11-16T00:23:45.536Z,7.12
2022-11-16T00:26:35.219Z,7.10
2022-11-16T00:29:26.280Z,7.10
2022-11-16T00:32:15.572Z,7.08
2022-11-16T00:35:06.439Z,7.08
2022-11-16T00:37:56.089Z,7.07
2022-11-16T00:40:45.715Z,7.06
2022-11-16T00:43:36.738Z,7.05
2022-11-16T00:46:26.274Z,7.05
2022-11-16T00:49:16.180Z,7.03
2022-11-16T00:52:05.864Z,7.01
2022-11-16T00:54:55.502Z,6.97
2022-11-16T00:57:45.255Z,6.94
2022-11-16T01:00:35.987Z,6.89
2022-11-16T01:03:25.809Z,6.85
2022-11-16T01:06:16.400Z,6.81
2022-11-16T01:09:06.307Z,6.77
2022-11-16T01:12:12.018Z,6.72
2022-11-16T01:15:01.870Z,6.67
2022-11-16T01:17:52.317Z,6.65
2022-11-16T01:20:42.185Z,6.65
2022-11-16T01:23:31.595Z,6.65
2022-11-16T01:26:21.074Z,6.64
2022-11-16T01:29:10.654Z,6.62
2022-11-16T01:32:03.394Z,6.61
2022-11-16T01:34:54.010Z,6.61
2022-11-16T01:37:49.917Z,6.62
2022-11-16T01:40:40.214Z,6.63
2022-11-16T01:43:29.666Z,6.65
2022-11-16T01:46:25.623Z,6.67
2022-11-16T01:49:20.374Z,6.68
2022-11-16T01:52:14.501Z,6.69
2022-11-16T01:55:05.462Z,6.71
2022-11-16T01:58:09.069Z,6.74
2022-11-16T02:01:01.177Z,6.76
2022-11-16T02:03:55.481Z,6.77
2022-11-16T02:07:01.330Z,6.78
2022-11-16T02:10:13.874Z,6.78
2022-11-16T02:13:22.482Z,6.81
2022-11-16T02:16:23.395Z,6.84
2022-11-16T02:19:43.886Z,6.86
2022-11-16T02:22:52.590Z,6.87
2022-11-16T02:25:58.035Z,6.86
2022-11-16T02:28:58.969Z,6.85
2022-11-16T02:31:54.014Z,6.86
2022-11-16T02:34:49.323Z,6.86
2022-11-16T02:37:43.034Z,6.86
2022-11-16T02:40:36.055Z,6.85
2022-11-16T02:43:34.133Z,6.84
2022-11-16T02:46:31.091Z,6.81
2022-11-16T02:49:22.608Z,6.77
2022-11-16T02:52:14.633Z,6.73
2022-11-16T02:55:05.188Z,6.70
2022-11-16T02:57:55.631Z,6.66
2022-11-16T03:00:51.490Z,6.63
2022-11-16T03:03:49.261Z,6.61
2022-11-16T03:06:41.442Z,6.60
2022-11-16T03:09:34.872Z,6.59
2022-11-16T03:12:33.393Z,6.56
2022-11-16T03:15:23.679Z,6.51
2022-11-16T03:18:16.672Z,6.45
2022-11-16T03:21:13.836Z,6.40
2022-11-16T03:24:07.698Z,6.36
2022-11-16T03:27:05.546Z,6.32
2022-11-16T03:30:04.722Z,6.30
2022-11-16T03:33:03.983Z,6.28
2022-11-16T03:36:01.140Z,6.25
2022-11-16T03:38:54.606Z,6.22
2022-11-16T03:41:46.707Z,6.19
2022-11-16T03:44:36.978Z,6.15
2022-11-16T03:47:27.985Z,6.10
2022-11-16T03:50:17.514Z,6.06
2022-11-16T03:53:07.042Z,6.01
2022-11-16T03:55:57.978Z,5.95
2022-11-16T03:58:49.529Z,5.88
2022-11-16T04:01:44.492Z,5.83
2022-11-16T04:04:54.623Z,5.78
2022-11-16T04:08:05.759Z,5.76
2022-11-16T04:11:14.027Z,5.73
2022-11-16T04:14:22.368Z,5.69
2022-11-16T04:17:31.857Z,5.64
2022-11-16T04:20:39.967Z,5.58
2022-11-16T04:23:48.408Z,5.53
2022-11-16T04:26:57.583Z,5.46
2022-11-16T04:29:48.506Z,5.42
2022-11-16T04:32:56.873Z,5.37
2022-11-16T04:36:07.121Z,5.33
2022-11-16T04:38:56.688Z,5.26
2022-11-16T04:42:04.897Z,5.22
2022-11-16T04:45:12.797Z,5.18
2022-11-16T04:48:13.101Z,5.13
2022-11-16T04:51:02.819Z,5.09
2022-11-16T04:53:56.820Z,5.05
2022-11-16T04:56:46.160Z,5.01
2022-11-16T04:59:35.817Z,4.96
2022-11-16T05:02:25.783Z,4.93
2022-11-16T05:05:19.440Z,4.89
2022-11-16T05:08:09.440Z,4.85
2022-11-16T05:10:59.961Z,4.81
2022-11-16T05:13:50.161Z,4.79
2022-11-16T05:16:41.234Z,4.76
2022-11-16T05:19:49.858Z,4.73
2022-11-16T05:22:40.182Z,4.69
2022-11-16T05:25:35.295Z,4.65
2022-11-16T05:28:27.433Z,4.62
2022-11-16T05:31:16.951Z,4.61
2022-11-16T05:34:06.812Z,4.58
2022-11-16T05:36:58.060Z,4.57
2022-11-16T05:39:47.535Z,4.54
2022-11-16T05:42:36.858Z,4.51
2022-11-16T05:45:27.039Z,4.47
2022-11-16T05:48:16.865Z,4.45
2022-11-16T05:51:07.018Z,4.42
2022-11-16T05:53:56.931Z,4.40
2022-11-16T05:56:47.626Z,4.37
2022-11-16T05:59:37.073Z,4.35
2022-11-16T06:02:26.987Z,4.34
2022-11-16T06:05:16.783Z,4.32
2022-11-16T06:08:06.707Z,4.29
2022-11-16T06:10:56.590Z,4.28
2022-11-16T06:13:46.324Z,4.27
2022-11-16T06:16:36.174Z,4.26
2022-11-16T06:19:32.480Z,4.25
2022-11-16T06:22:22.508Z,4.23
2022-11-16T06:25:12.429Z,4.22
2022-11-16T06:28:07.899Z,4.18
2022-11-16T06:30:58.090Z,4.16
2022-11-16T06:33:48.365Z,4.15
2022-11-16T06:36:44.095Z,4.13
2022-11-16T06:39:33.571Z,4.14
2022-11-16T06:42:23.754Z,4.13
2022-11-16T06:45:14.931Z,4.12
2022-11-16T06:48:08.864Z,4.09
2022-11-16T06:50:59.566Z,4.06
2022-11-16T06:53:49.293Z,4.02
2022-11-16T06:56:39.129Z,3.97
2022-11-16T06:59:30.276Z,3.95
2022-11-16T07:02:22.252Z,3.92
2022-11-16T07:05:11.629Z,3.89
2022-11-16T07:08:01.672Z,3.85
2022-11-16T07:10:51.582Z,3.83
2022-11-16T07:13:41.274Z,3.81
2022-11-16T07:16:31.666Z,3.79
2022-11-16T07:19:23.299Z,3.78
2022-11-16T07:22:13.121Z,3.78
2022-11-16T07:25:02.980Z,3.77
2022-11-16T07:27:52.968Z,3.74
2022-11-16T07:30:44.230Z,3.73
2022-11-16T07:33:36.808Z,3.72
2022-11-16T07:36:39.309Z,3.70
2022-11-16T07:39:31.210Z,3.69
2022-11-16T07:42:21.004Z,3.66
2022-11-16T07:45:22.913Z,3.64
2022-11-16T07:48:16.477Z,3.64
2022-11-16T07:51:41.698Z,3.64
2022-11-16T07:54:53.434Z,3.64
2022-11-16T07:57:47.936Z,3.64
2022-11-16T08:00:41.860Z,3.65
2022-11-16T08:03:35.870Z,3.67
2022-11-16T08:06:30.232Z,3.69
2022-11-16T08:09:19.540Z,3.73
2022-11-16T08:12:09.216Z,3.75
2022-11-16T08:15:00.254Z,3.77
2022-11-16T08:17:50.079Z,3.77
2022-11-16T08:20:39.915Z,3.76
2022-11-16T08:23:29.679Z,3.76
2022-11-16T08:26:21.794Z,3.76
2022-11-16T08:29:17.183Z,3.78
2022-11-16T08:32:11.391Z,3.80
2022-11-16T08:35:00.871Z,3.81
2022-11-16T08:37:50.745Z,3.84
2022-11-16T08:40:41.379Z,3.86
2022-11-16T08:43:33.211Z,3.89
2022-11-16T08:46:22.793Z,3.92
2022-11-16T08:49:17.157Z,3.95
2022-11-16T08:52:07.025Z,4.00
2022-11-16T08:54:56.859Z,4.03
2022-11-16T08:57:47.037Z,4.07
2022-11-16T09:00:37.720Z,4.09
2022-11-16T09:03:28.356Z,4.10
2022-11-16T09:06:18.505Z,4.12
2022-11-16T09:09:08.093Z,4.18
2022-11-16T09:11:57.749Z,4.26
2022-11-16T09:14:47.258Z,4.31
2022-11-16T09:17:37.546Z,4.35
2022-11-16T09:20:27.035Z,4.41
2022-11-16T09:23:20.933Z,4.46
2022-11-16T09:26:16.005Z,4.52
2022-11-16T09:29:05.530Z,4.57
2022-11-16T09:31:55.411Z,4.62
2022-11-16T09:34:44.943Z,4.69
2022-11-16T09:37:35.289Z,4.74
2022-11-16T09:40:28.489Z,4.79
2022-11-16T09:43:33.766Z,4.86
2022-11-16T09:46:29.347Z,4.94
2022-11-16T09:49:22.884Z,5.02
2022-11-16T09:52:19.036Z,5.09
2022-11-16T09:55:24.467Z,5.15
2022-11-16T09:58:19.290Z,5.23
2022-11-16T10:01:21.189Z,5.33
2022-11-16T10:04:14.931Z,5.41
2022-11-16T10:07:08.711Z,5.51
2022-11-16T10:09:58.695Z,5.62
2022-11-16T10:12:52.504Z,5.71
2022-11-16T10:15:55.811Z,5.78
2022-11-16T10:18:56.192Z,5.85
2022-11-16T10:21:54.316Z,5.91
2022-11-16T10:24:56.984Z,5.98
2022-11-16T10:28:23.055Z,6.03
2022-11-16T10:31:20.805Z,6.10
2022-11-16T10:34:19.358Z,6.16
2022-11-16T10:37:13.496Z,6.22
2022-11-16T10:40:16.231Z,6.29
2022-11-16T10:43:13.536Z,6.36
2022-11-16T10:46:17.675Z,6.46
2022-11-16T10:49:14.845Z,6.57
2022-11-16T10:52:04.244Z,6.67
2022-11-16T10:54:53.992Z,6.75
2022-11-16T10:57:57.906Z,6.84
2022-11-16T11:00:51.154Z,6.95
2022-11-16T11:03:40.221Z,7.05
2022-11-16T11:06:29.750Z,7.14
2022-11-16T11:09:25.738Z,7.23
2022-11-16T11:12:36.669Z,7.34
2022-11-16T11:15:27.355Z,7.50
2022-11-16T11:18:37.699Z,8.59
2022-11-16T11:21:28.560Z,12.49
2022-11-16T11:24:43.212Z,16.14
2022-11-16T11:27:32.458Z,19.75
2022-11-16T11:30:22.796Z,22.55
2022-11-16T11:33:15.378Z,24.95
2022-11-16T11:36:07.526Z,26.86
2022-11-16T11:38:59.611Z,28.48
2022-11-16T11:42:06.480Z,29.94
2022-11-16T11:44:58.387Z,31.18
2022-11-16T11:47:58.776Z,31.95
2022-11-16T11:50:53.356Z,32.62
2022-11-16T11:53:54.423Z,33.29
2022-11-16T11:56:44.064Z,33.99
2022-11-16T11:59:33.891Z,34.60
2022-11-16T12:02:43.578Z,34.96
2022-11-16T12:06:03.296Z,35.19
2022-11-16T12:09:17.456Z,35.13
2022-11-16T12:12:22.889Z,35.20
2022-11-16T12:15:41.263Z,35.24
2022-11-16T12:18:54.209Z,35.32
2022-11-16T12:21:59.182Z,35.20
2022-11-16T12:25:02.620Z,34.83
2022-11-16T12:28:04.778Z,34.42
2022-11-16T12:31:08.580Z,33.12
2022-11-16T12:34:09.423Z,30.55
2022-11-16T12:37:04.310Z,27.91
2022-11-16T12:40:08.618Z,25.96
2022-11-16T12:43:05.463Z,24.26
2022-11-16T12:46:06.039Z,23.28
2022-11-16T12:49:26.009Z,22.99
2022-11-16T12:52:33.049Z,22.88
2022-11-16T12:55:36.982Z,22.71
2022-11-16T12:58:40.394Z,22.51
2022-11-16T13:01:36.470Z,22.38
2022-11-16T13:04:30.105Z,22.45
2022-11-16T13:07:24.431Z,22.51
2022-11-16T13:10:19.698Z,22.44
2022-11-16T13:16:28.957Z,21.05
2022-11-16T13:19:17.600Z,20.20
2022-11-16T13:22:13.199Z,19.54
2022-11-16T13:25:12.727Z,19.14
2022-11-16T13:28:10.874Z,18.08
2022-11-16T13:31:05.990Z,17.04
2022-11-16T13:33:57.795Z,16.22
2022-11-16T13:36:47.395Z,15.48
2022-11-16T13:40:10.512Z,14.83
2022-11-16T13:43:07.704Z,14.21
2022-11-16T13:45:59.839Z,13.81
2022-11-16T13:48:50.980Z,13.59
2022-11-16T13:51:49.872Z,13.47
2022-11-16T13:54:46.007Z,13.37
2022-11-16T13:57:37.658Z,13.25
2022-11-16T14:00:33.349Z,13.11
2022-11-16T14:03:40.306Z,12.94
2022-11-16T14:06:58.728Z,12.76
2022-11-16T14:09:48.906Z,12.57
2022-11-16T14:12:52.164Z,12.37
2022-11-16T14:15:41.417Z,12.17
2022-11-16T14:18:36.555Z,11.97
2022-11-16T14:21:43.611Z,11.80
2022-11-16T14:24:40.223Z,11.62
2022-11-16T14:27:36.374Z,11.51
2022-11-16T14:30:30.495Z,11.38
2022-11-16T14:33:31.881Z,11.26
2022-11-16T14:36:37.214Z,11.15
2022-11-16T14:39:40.666Z,11.05
2022-11-16T14:42:42.977Z,10.98
2022-11-16T14:45:46.467Z,10.93
2022-11-16T14:48:43.639Z,10.86
2022-11-16T14:51:35.418Z,10.82
2022-11-16T14:54:32.315Z,10.78
2022-11-16T14:57:23.612Z,10.72
2022-11-16T15:00:20.821Z,10.66
2022-11-16T15:03:12.251Z,10.58
2022-11-16T15:06:02.770Z,10.51
2022-11-16T15:08:57.159Z,10.44
2022-11-16T15:12:07.797Z,10.39
2022-11-16T15:15:03.279Z,10.34
2022-11-16T15:18:06.893Z,10.29
2022-11-16T15:20:56.011Z,10.21
2022-11-16T15:24:02.096Z,10.12
2022-11-16T15:27:09.585Z,10.04
2022-11-16T15:30:00.668Z,9.95
2022-11-16T15:32:52.120Z,9.88
2022-11-16T15:35:41.841Z,9.82
2022-11-16T15:38:32.689Z,9.75
2022-11-16T15:41:22.918Z,9.67
2022-11-16T15:44:16.853Z,9.62
2022-11-16T15:47:06.552Z,9.55
2022-11-16T15:49:56.771Z,9.48
2022-11-16T15:52:49.881Z,9.39
2022-11-16T15:55:41.147Z,9.32
2022-11-16T15:58:36.212Z,9.26
2022-11-16T16:01:26.093Z,9.19
2022-11-16T16:04:17.927Z,9.12
2022-11-16T16:07:09.615Z,9.03
2022-11-16T16:10:22.345Z,8.94
2022-11-16T16:13:25.988Z,8.85
2022-11-16T16:16:35.698Z,8.75
2022-11-16T16:19:35.768Z,8.66
2022-11-16T16:22:29.231Z,8.57
2022-11-16T16:25:30.742Z,8.49
2022-11-16T16:28:19.865Z,8.40
2022-11-16T16:31:10.508Z,8.32
2022-11-16T16:34:09.899Z,8.25
2022-11-16T16:36:59.340Z,8.22
2022-11-16T16:39:49.810Z,8.23
2022-11-16T16:42:38.607Z,8.23
2022-11-16T16:45:36.591Z,8.23
2022-11-16T16:48:25.586Z,8.23
2022-11-16T16:51:15.123Z,8.23
2022-11-16T16:54:04.875Z,8.21
2022-11-16T16:56:54.519Z,8.18
2022-11-16T16:59:44.917Z,8.14
2022-11-16T17:02:36.317Z,8.08
2022-11-16T17:05:25.679Z,8.03
2022-11-16T17:08:15.202Z,7.99
2022-11-16T17:11:05.157Z,7.95
2022-11-16T17:13:55.681Z,7.93
2022-11-16T17:16:44.179Z,7.91
2022-11-16T17:19:33.769Z,7.90
2022-11-16T17:22:23.192Z,7.91
2022-11-16T17:25:15.901Z,7.93
2022-11-16T17:28:05.552Z,7.94
2022-11-16T17:31:00.088Z,7.97
2022-11-16T17:33:58.872Z,7.99
2022-11-16T17:36:49.605Z,8.00
2022-11-16T17:39:39.155Z,8.01
2022-11-16T17:42:28.489Z,8.01
2022-11-16T17:45:18.093Z,7.99
2022-11-16T17:48:07.753Z,7.99
2022-11-16T17:50:59.095Z,7.98
2022-11-16T17:53:49.160Z,7.95
2022-11-16T17:56:38.549Z,7.92
2022-11-16T17:59:29.994Z,7.88
2022-11-16T18:02:19.533Z,7.82
2022-11-16T18:05:09.978Z,7.71
2022-11-16T18:07:59.467Z,7.61
2022-11-16T18:10:48.969Z,7.51
2022-11-16T18:13:39.765Z,7.42
2022-11-16T18:16:31.833Z,7.36
2022-11-16T18:19:21.561Z,7.32
2022-11-16T18:22:11.043Z,7.29
2022-11-16T18:25:00.802Z,7.25
2022-11-16T18:27:53.116Z,7.20
2022-11-16T18:30:42.487Z,7.16
2022-11-16T18:33:32.815Z,7.11
2022-11-16T18:36:23.532Z,7.08
2022-11-16T18:39:13.128Z,7.06
2022-11-16T18:42:04.549Z,7.05
2022-11-16T18:44:54.233Z,7.04
2022-11-16T18:47:43.602Z,7.04
2022-11-16T18:50:33.046Z,7.04
2022-11-16T18:53:22.523Z,7.04
2022-11-16T18:56:12.823Z,7.06
2022-11-16T18:59:02.656Z,7.08
2022-11-16T19:01:52.558Z,7.11
2022-11-16T19:04:42.215Z,7.15
2022-11-16T19:07:31.896Z,7.18
2022-11-16T19:10:21.608Z,7.22
2022-11-16T19:13:11.422Z,7.25
2022-11-16T19:16:01.323Z,7.29
2022-11-16T19:18:51.410Z,7.32
2022-11-16T19:21:41.380Z,7.36
2022-11-16T19:24:31.202Z,7.40
2022-11-16T19:27:20.861Z,7.43
2022-11-16T19:30:11.765Z,7.44
2022-11-16T19:33:01.972Z,7.45
2022-11-16T19:35:51.600Z,7.47
2022-11-16T19:38:41.419Z,7.48
2022-11-16T19:41:31.546Z,7.49
2022-11-16T19:44:21.055Z,7.49
2022-11-16T19:47:10.584Z,7.50
2022-11-16T19:50:00.231Z,7.50
2022-11-16T19:52:49.895Z,7.50
2022-11-16T19:55:39.503Z,7.49
2022-11-16T19:58:30.412Z,7.49
2022-11-16T20:01:22.985Z,7.50
2022-11-16T20:04:13.642Z,7.50
2022-11-16T20:07:05.056Z,7.51
2022-11-16T20:09:54.442Z,7.52
2022-11-16T20:12:43.878Z,7.55
2022-11-16T20:15:33.685Z,7.57
2022-11-16T20:18:23.131Z,7.58
2022-11-16T20:21:17.400Z,7.59
2022-11-16T20:24:10.615Z,7.60
2022-11-16T20:27:00.188Z,7.61
2022-11-16T20:29:49.866Z,7.61
2022-11-16T20:32:39.355Z,7.61
2022-11-16T20:35:28.919Z,7.62
2022-11-16T20:38:18.357Z,7.63
2022-11-16T20:41:12.775Z,7.64
2022-11-16T20:44:02.836Z,7.65
2022-11-16T20:46:53.804Z,7.65
2022-11-16T20:49:43.154Z,7.66
2022-11-16T20:52:32.597Z,7.66
2022-11-16T20:55:22.720Z,7.67
2022-11-16T20:58:12.530Z,7.67
2022-11-16T21:01:04.420Z,7.68
2022-11-16T21:03:56.399Z,7.69
2022-11-16T21:06:46.144Z,7.69
2022-11-16T21:09:56.132Z,7.69
2022-11-16T21:13:05.037Z,7.69
2022-11-16T21:16:00.540Z,7.68
2022-11-16T21:18:50.968Z,7.67
2022-11-16T21:21:41.572Z,7.65
2022-11-16T21:24:32.002Z,7.64
2022-11-16T21:27:21.838Z,7.61
2022-11-16T21:30:14.344Z,7.59
2022-11-16T21:33:04.726Z,7.56
2022-11-16T21:35:55.172Z,7.53
2022-11-16T21:38:45.617Z,7.50
2022-11-16T21:41:37.542Z,7.47
2022-11-16T21:44:41.446Z,7.44
2022-11-16T21:47:30.964Z,7.40
2022-11-16T21:50:35.534Z,7.36
2022-11-16T21:53:25.149Z,7.32
2022-11-16T21:56:16.698Z,7.27
2022-11-16T21:59:05.946Z,7.21
2022-11-16T22:02:01.663Z,7.16
2022-11-16T22:05:09.707Z,7.11
2022-11-16T22:08:04.919Z,7.06
2022-11-16T22:10:54.141Z,7.02
2022-11-16T22:13:43.812Z,6.98
2022-11-16T22:16:33.129Z,6.94
2022-11-16T22:19:22.614Z,6.90
2022-11-16T22:22:11.985Z,6.85
2022-11-16T22:25:01.610Z,6.83
2022-11-16T22:28:20.089Z,6.82
2022-11-16T22:31:04.715Z,6.81
2022-11-16T22:33:53.896Z,6.83
2022-11-16T22:36:43.330Z,6.85
2022-11-16T22:39:39.314Z,6.86
2022-11-16T22:42:29.292Z,6.87
2022-11-16T22:45:18.851Z,6.87
2022-11-16T22:48:08.667Z,6.87
2022-11-16T22:51:05.262Z,6.86
2022-11-16T22:53:55.115Z,6.86
2022-11-16T22:56:44.478Z,6.86
2022-11-16T22:59:34.200Z,6.86
2022-11-16T23:02:23.652Z,6.85
2022-11-16T23:05:13.806Z,6.86
2022-11-16T23:08:03.489Z,6.87
2022-11-16T23:11:19.586Z,6.88
2022-11-16T23:14:30.107Z,6.90
2022-11-16T23:17:23.605Z,6.92
2022-11-16T23:20:31.349Z,6.93
2022-11-16T23:23:39.574Z,6.93
2022-11-16T23:26:47.438Z,6.94
2022-11-16T23:29:37.135Z,6.94
2022-11-16T23:32:27.166Z,6.94
2022-11-16T23:35:20.655Z,6.95
2022-11-16T23:38:10.387Z,6.94
2022-11-16T23:41:20.725Z,6.93
2022-11-16T23:44:11.159Z,6.93
2022-11-16T23:47:01.136Z,6.93
2022-11-16T23:49:51.684Z,6.93
2022-11-16T23:52:40.586Z,6.92
2022-11-16T23:55:32.061Z,6.90
2022-11-16T23:58:21.888Z,6.88
